createdAt,value
2018-02-12T00:00:59.693Z,16.90
2018-02-12T00:02:00.058Z,17.40
2018-02-12T00:02:59.476Z,18.00
2018-02-12T00:03:59.252Z,17.20
2018-02-12T00:04:58.833Z,17.00
2018-02-12T00:05:59.154Z,17.40
2018-02-12T00:06:59.163Z,21.70
2018-02-12T00:07:58.986Z,20.30
2018-02-12T00:08:58.677Z,22.20
2018-02-12T00:09:59.484Z,23.40
2018-02-12T00:10:59.482Z,27.00
2018-02-12T00:11:59.038Z,21.50
2018-02-12T00:12:58.874Z,24.10
2018-02-12T00:13:59.324Z,22.20
2018-02-12T00:14:59.476Z,17.90
2018-02-12T00:15:59.290Z,20.50
2018-02-12T00:16:58.670Z,19.10
2018-02-12T00:17:59.454Z,20.20
2018-02-12T00:18:58.895Z,23.30
2018-02-12T00:19:59.265Z,26.10
2018-02-12T00:20:59.302Z,26.90
2018-02-12T00:21:59.301Z,20.80
2018-02-12T00:22:58.668Z,20.90
2018-02-12T00:23:59.400Z,21.80
2018-02-12T00:24:59.268Z,24.50
2018-02-12T00:25:59.636Z,27.30
2018-02-12T00:27:20.452Z,26.10
2018-02-12T00:28:21.026Z,22.80
2018-02-12T00:29:41.872Z,24.20
2018-02-12T00:30:42.888Z,30.20
2018-02-12T00:31:43.170Z,25.90
2018-02-12T00:32:42.984Z,27.10
2018-02-12T00:33:42.609Z,27.70
2018-02-12T00:34:42.300Z,26.50
2018-02-12T00:35:41.771Z,25.60
2018-02-12T00:36:42.617Z,31.50
2018-02-12T00:37:42.418Z,26.60
2018-02-12T00:38:42.019Z,24.70
2018-02-12T00:39:42.486Z,25.00
2018-02-12T00:40:42.822Z,21.80
2018-02-12T00:41:42.656Z,24.00
2018-02-12T00:42:42.416Z,21.50
2018-02-12T00:43:42.222Z,26.50
2018-02-12T00:44:42.750Z,23.70
2018-02-12T00:45:42.343Z,28.10
2018-02-12T00:47:03.648Z,22.30
2018-02-12T00:48:04.439Z,22.60
2018-02-12T00:49:26.055Z,29.10
2018-02-12T00:50:26.668Z,23.00
2018-02-12T00:51:26.117Z,27.90
2018-02-12T00:52:26.961Z,25.30
2018-02-12T00:53:26.851Z,23.00
2018-02-12T00:54:26.148Z,30.10
2018-02-12T00:55:26.628Z,28.40
2018-02-12T00:56:26.921Z,31.10
2018-02-12T00:57:26.415Z,29.00
2018-02-12T00:58:27.427Z,28.70
2018-02-12T00:59:27.040Z,25.70
2018-02-12T01:00:26.566Z,28.30
2018-02-12T01:01:26.986Z,30.10
2018-02-12T01:02:26.767Z,33.90
2018-02-12T01:03:26.414Z,31.50
2018-02-12T01:04:27.189Z,30.60
2018-02-12T01:05:26.508Z,30.20
2018-02-12T01:06:26.888Z,30.10
2018-02-12T01:07:26.841Z,27.80
2018-02-12T01:08:26.440Z,24.70
2018-02-12T01:09:27.133Z,30.50
2018-02-12T01:10:26.406Z,23.80
2018-02-12T01:11:27.244Z,28.50
2018-02-12T01:12:26.964Z,27.10
2018-02-12T01:13:26.649Z,23.70
2018-02-12T01:14:27.327Z,25.70
2018-02-12T01:15:27.100Z,24.60
2018-02-12T01:16:26.761Z,25.90
2018-02-12T01:17:26.124Z,21.50
2018-02-12T01:18:26.661Z,21.10
2018-02-12T01:19:26.200Z,24.10
2018-02-12T01:20:26.940Z,22.20
2018-02-12T01:21:26.471Z,21.20
2018-02-12T01:22:26.884Z,23.90
2018-02-12T01:23:26.324Z,20.80
2018-02-12T01:24:27.037Z,25.30
2018-02-12T01:25:27.016Z,24.30
2018-02-12T01:26:26.705Z,21.30
2018-02-12T01:27:26.503Z,20.80
2018-02-12T01:28:27.186Z,17.60
2018-02-12T01:29:26.665Z,17.40
2018-02-12T01:30:26.503Z,22.40
2018-02-12T01:31:26.991Z,18.40
2018-02-12T01:32:26.372Z,20.40
2018-02-12T01:33:26.601Z,17.90
2018-02-12T01:34:26.910Z,17.80
2018-02-12T01:35:26.121Z,18.60
2018-02-12T01:36:48.523Z,17.20
2018-02-12T01:37:49.418Z,19.30
2018-02-12T01:38:49.332Z,19.70
2018-02-12T01:39:48.818Z,17.40
2018-02-12T01:40:48.567Z,18.50
2018-02-12T01:41:49.218Z,15.90
2018-02-12T01:43:10.695Z,17.40
2018-02-12T01:44:11.264Z,17.00
2018-02-12T01:45:11.154Z,14.50
2018-02-12T01:46:10.479Z,13.60
2018-02-12T01:47:11.027Z,13.40
2018-02-12T01:48:10.418Z,19.20
2018-02-12T01:49:11.520Z,13.80
2018-02-12T01:50:10.992Z,14.80
2018-02-12T01:51:11.652Z,14.50
2018-02-12T01:52:32.881Z,12.60
2018-02-12T01:53:33.564Z,12.00
2018-02-12T01:54:33.340Z,16.40
2018-02-12T01:55:33.211Z,13.20
2018-02-12T01:56:53.724Z,15.30
2018-02-12T01:57:54.393Z,13.20
2018-02-12T01:58:54.094Z,13.30
2018-02-12T01:59:54.428Z,15.60
2018-02-12T02:01:16.096Z,13.90
2018-02-12T02:02:15.739Z,14.10
2018-02-12T02:03:16.525Z,14.20
2018-02-12T02:04:15.952Z,14.60
2018-02-12T02:05:16.763Z,14.30
2018-02-12T02:06:16.238Z,11.10
2018-02-12T02:07:16.711Z,11.90
2018-02-12T02:08:38.753Z,13.30
2018-02-12T02:09:39.153Z,11.60
2018-02-12T02:10:39.008Z,11.90
2018-02-12T02:11:38.429Z,12.60
2018-02-12T02:12:39.130Z,9.30
2018-02-12T02:13:39.130Z,9.50
2018-02-12T02:14:38.934Z,9.70
2018-02-12T02:15:38.786Z,9.50
2018-02-12T02:16:39.652Z,9.70
2018-02-12T02:17:39.313Z,10.30
2018-02-12T02:18:38.943Z,9.80
2018-02-12T02:19:38.428Z,11.90
2018-02-12T02:20:38.731Z,10.10
2018-02-12T02:21:39.171Z,11.30
2018-02-12T02:22:38.791Z,12.20
2018-02-12T02:23:39.599Z,11.80
2018-02-12T02:24:38.979Z,8.50
2018-02-12T02:25:38.934Z,12.80
2018-02-12T02:26:38.401Z,10.80
2018-02-12T02:27:38.952Z,12.00
2018-02-12T02:28:40.015Z,9.80
2018-02-12T02:29:38.531Z,11.60
2018-02-12T02:30:38.989Z,15.90
2018-02-12T02:31:38.416Z,11.90
2018-02-12T02:32:39.207Z,10.60
2018-02-12T02:34:00.081Z,12.60
2018-02-12T02:35:00.538Z,14.80
2018-02-12T02:35:59.872Z,14.20
2018-02-12T02:37:00.515Z,11.90
2018-02-12T02:38:00.190Z,12.80
2018-02-12T02:39:00.749Z,12.40
2018-02-12T02:40:00.155Z,14.10
2018-02-12T02:41:00.755Z,14.50
2018-02-12T02:42:00.492Z,12.70
2018-02-12T02:42:59.726Z,10.70
2018-02-12T02:44:00.341Z,10.50
2018-02-12T02:45:01.026Z,12.60
2018-02-12T02:46:21.558Z,9.70
2018-02-12T02:47:43.577Z,13.20
2018-02-12T02:49:05.452Z,12.10
2018-02-12T02:50:05.640Z,12.70
2018-02-12T02:51:06.044Z,12.20
2018-02-12T02:52:06.591Z,11.30
2018-02-12T02:53:06.228Z,15.50
2018-02-12T02:54:05.894Z,13.80
2018-02-12T02:55:06.558Z,12.70
2018-02-12T02:56:06.241Z,10.30
2018-02-12T02:57:06.031Z,13.70
2018-02-12T02:58:05.369Z,9.70
2018-02-12T02:59:05.882Z,15.60
2018-02-12T03:00:07.134Z,13.60
2018-02-12T03:01:27.563Z,14.40
2018-02-12T03:02:27.852Z,14.10
2018-02-12T03:03:28.151Z,12.40
2018-02-12T03:04:27.514Z,13.80
2018-02-12T03:05:28.320Z,14.50
2018-02-12T03:06:27.974Z,15.40
2018-02-12T03:07:28.683Z,16.70
2018-02-12T03:08:28.249Z,15.20
2018-02-12T03:09:27.650Z,16.90
2018-02-12T03:10:28.216Z,16.90
2018-02-12T03:11:27.814Z,14.80
2018-02-12T03:12:27.936Z,16.30
2018-02-12T03:13:28.249Z,19.80
2018-02-12T03:14:27.882Z,20.50
2018-02-12T03:15:28.316Z,19.00
2018-02-12T03:16:27.692Z,21.00
2018-02-12T03:17:28.382Z,19.50
2018-02-12T03:18:27.594Z,23.30
2018-02-12T03:19:28.114Z,22.00
2018-02-12T03:20:28.755Z,18.70
2018-02-12T03:21:28.333Z,19.60
2018-02-12T03:22:27.576Z,25.80
2018-02-12T03:23:27.902Z,23.10
2018-02-12T03:24:28.613Z,21.00
2018-02-12T03:25:28.288Z,24.40
2018-02-12T03:26:28.215Z,20.20
2018-02-12T03:27:27.446Z,23.60
2018-02-12T03:28:28.199Z,22.70
2018-02-12T03:29:27.788Z,22.40
2018-02-12T03:30:28.155Z,21.70
2018-02-12T03:31:28.704Z,25.60
2018-02-12T03:32:28.117Z,20.90
2018-02-12T03:33:28.843Z,26.00
2018-02-12T03:34:28.339Z,24.10
2018-02-12T03:35:27.587Z,21.40
2018-02-12T03:36:28.338Z,24.00
2018-02-12T03:37:27.778Z,24.00
2018-02-12T03:38:28.525Z,21.30
2018-02-12T03:39:27.719Z,27.90
2018-02-12T03:40:28.277Z,28.00
2018-02-12T03:41:28.331Z,25.20
2018-02-12T03:42:28.058Z,30.50
2018-02-12T03:43:28.413Z,23.30
2018-02-12T03:44:27.540Z,26.50
2018-02-12T03:45:28.042Z,21.80
2018-02-12T03:46:28.612Z,28.10
2018-02-12T03:47:28.219Z,23.20
2018-02-12T03:48:27.429Z,23.60
2018-02-12T03:49:27.998Z,27.10
2018-02-12T03:50:28.418Z,24.10
2018-02-12T03:51:28.140Z,29.70
2018-02-12T03:52:27.620Z,21.10
2018-02-12T03:53:27.815Z,21.10
2018-02-12T03:54:27.850Z,20.20
2018-02-12T03:55:28.573Z,17.90
2018-02-12T03:56:27.974Z,17.70
2018-02-12T03:57:28.431Z,19.00
2018-02-12T03:58:27.705Z,16.40
2018-02-12T03:59:28.197Z,13.90
2018-02-12T04:00:27.856Z,13.30
2018-02-12T04:01:29.036Z,14.10
2018-02-12T04:02:28.549Z,11.30
2018-02-12T04:03:27.945Z,13.80
2018-02-12T04:04:28.246Z,14.80
2018-02-12T04:05:27.310Z,15.60
2018-02-12T04:06:28.051Z,15.10
2018-02-12T04:07:29.011Z,17.80
2018-02-12T04:08:28.347Z,13.30
2018-02-12T04:09:28.099Z,18.80
2018-02-12T04:10:27.399Z,18.70
2018-02-12T04:11:27.875Z,17.70
2018-02-12T04:12:28.585Z,19.00
2018-02-12T04:13:49.813Z,22.20
2018-02-12T04:14:50.542Z,21.60
2018-02-12T04:15:49.843Z,19.50
2018-02-12T04:16:50.141Z,22.30
2018-02-12T04:17:50.391Z,28.30
2018-02-12T04:18:49.965Z,22.20
2018-02-12T04:19:50.720Z,24.80
2018-02-12T04:20:50.194Z,22.50
2018-02-12T04:21:49.604Z,19.10
2018-02-12T04:22:50.266Z,27.60
2018-02-12T04:23:50.172Z,27.70
2018-02-12T04:24:49.730Z,19.90
2018-02-12T04:25:50.240Z,23.50
2018-02-12T04:26:49.942Z,21.40
2018-02-12T04:27:50.335Z,25.70
2018-02-12T04:28:49.961Z,22.50
2018-02-12T04:29:50.471Z,28.70
2018-02-12T04:30:49.822Z,22.00
2018-02-12T04:31:50.727Z,18.40
2018-02-12T04:32:50.191Z,22.20
2018-02-12T04:33:49.697Z,19.80
2018-02-12T04:34:50.014Z,17.20
2018-02-12T04:35:50.942Z,19.40
2018-02-12T04:36:50.404Z,19.60
2018-02-12T04:37:49.923Z,20.10
2018-02-12T04:38:50.765Z,20.30
2018-02-12T04:39:50.287Z,17.00
2018-02-12T04:40:50.318Z,19.10
2018-02-12T04:41:49.723Z,16.40
2018-02-12T04:42:50.353Z,19.70
2018-02-12T04:43:49.745Z,20.00
2018-02-12T04:44:50.350Z,21.60
2018-02-12T04:45:49.907Z,15.90
2018-02-12T04:46:50.212Z,20.80
2018-02-12T04:47:49.968Z,21.30
2018-02-12T04:48:50.529Z,21.30
2018-02-12T04:49:50.356Z,21.60
2018-02-12T04:50:50.303Z,15.70
2018-02-12T04:51:49.856Z,14.30
2018-02-12T04:52:50.207Z,16.50
2018-02-12T04:53:49.571Z,11.60
2018-02-12T04:54:50.395Z,13.70
2018-02-12T04:55:49.845Z,14.40
2018-02-12T04:56:50.657Z,11.40
2018-02-12T04:57:50.145Z,11.60
2018-02-12T04:58:50.700Z,12.90
2018-02-12T04:59:50.221Z,15.10
2018-02-12T05:00:49.771Z,12.60
2018-02-12T05:01:50.074Z,12.90
2018-02-12T05:02:50.446Z,13.20
2018-02-12T05:03:50.071Z,8.20
2018-02-12T05:04:50.860Z,11.50
2018-02-12T05:05:50.570Z,15.40
2018-02-12T05:06:50.147Z,13.40
2018-02-12T05:07:50.452Z,13.60
2018-02-12T05:08:49.950Z,11.40
2018-02-12T05:10:12.281Z,15.70
2018-02-12T05:11:12.077Z,17.30
2018-02-12T05:12:12.720Z,14.40
2018-02-12T05:13:12.406Z,14.50
2018-02-12T05:14:11.967Z,10.70
2018-02-12T05:15:34.011Z,17.00
2018-02-12T05:16:34.178Z,14.10
2018-02-12T05:17:34.950Z,14.80
2018-02-12T05:18:34.247Z,12.60
2018-02-12T05:19:34.883Z,12.70
2018-02-12T05:20:34.318Z,16.70
2018-02-12T05:21:34.556Z,15.70
2018-02-12T05:22:34.781Z,17.00
2018-02-12T05:23:34.561Z,17.30
2018-02-12T05:24:34.146Z,18.20
2018-02-12T05:25:34.398Z,13.40
2018-02-12T05:26:34.551Z,13.90
2018-02-12T05:27:34.512Z,15.90
2018-02-12T05:28:35.070Z,17.10
2018-02-12T05:29:34.480Z,17.20
2018-02-12T05:30:34.727Z,13.70
2018-02-12T05:31:34.475Z,14.10
2018-02-12T05:32:33.999Z,16.90
2018-02-12T05:33:56.048Z,15.60
2018-02-12T05:34:56.386Z,17.50
2018-02-12T05:35:57.127Z,23.90
2018-02-12T05:36:56.860Z,24.20
2018-02-12T05:37:56.547Z,21.40
2018-02-12T05:38:55.890Z,17.00
2018-02-12T05:39:56.126Z,18.50
2018-02-12T05:40:56.761Z,19.90
2018-02-12T05:41:56.316Z,16.60
2018-02-12T05:42:56.617Z,16.70
2018-02-12T05:43:56.093Z,17.30
2018-02-12T05:44:56.596Z,16.20
2018-02-12T05:45:56.293Z,18.50
2018-02-12T05:46:56.573Z,16.80
2018-02-12T05:47:56.283Z,13.10
2018-02-12T05:48:57.139Z,16.70
2018-02-12T05:49:56.439Z,19.20
2018-02-12T05:50:56.922Z,17.00
2018-02-12T05:52:18.465Z,14.20
2018-02-12T05:53:19.094Z,20.40
2018-02-12T05:54:18.305Z,19.40
2018-02-12T05:55:18.937Z,18.90
2018-02-12T05:56:18.329Z,21.10
2018-02-12T05:57:18.493Z,17.50
2018-02-12T05:58:18.101Z,16.40
2018-02-12T05:59:18.789Z,18.90
2018-02-12T06:00:18.476Z,19.90
2018-02-12T06:01:18.111Z,16.80
2018-02-12T06:02:18.671Z,19.50
2018-02-12T06:03:18.119Z,19.90
2018-02-12T06:04:18.542Z,18.10
2018-02-12T06:05:18.315Z,19.20
2018-02-12T06:06:18.939Z,19.60
2018-02-12T06:07:18.457Z,17.20
2018-02-12T06:08:18.134Z,18.70
2018-02-12T06:09:18.838Z,16.60
2018-02-12T06:10:18.535Z,17.30
2018-02-12T06:11:17.980Z,25.20
2018-02-12T06:12:18.674Z,14.90
2018-02-12T06:13:39.876Z,18.50
2018-02-12T06:14:40.490Z,20.60
2018-02-12T06:15:39.849Z,19.80
2018-02-12T06:16:40.265Z,15.50
2018-02-12T06:17:39.623Z,13.10
2018-02-12T06:18:40.006Z,13.20
2018-02-12T06:19:40.415Z,17.20
2018-02-12T06:20:39.835Z,18.60
2018-02-12T06:21:40.616Z,15.60
2018-02-12T06:22:40.132Z,17.10
2018-02-12T06:23:39.998Z,15.00
2018-02-12T06:24:40.647Z,12.90
2018-02-12T06:26:01.414Z,16.50
2018-02-12T06:27:02.154Z,21.00
2018-02-12T06:28:01.884Z,13.00
2018-02-12T06:29:23.921Z,16.50
2018-02-12T06:30:24.509Z,12.50
2018-02-12T06:31:25.099Z,13.80
2018-02-12T06:32:24.617Z,15.30
2018-02-12T06:33:24.441Z,17.40
2018-02-12T06:34:23.852Z,14.90
2018-02-12T06:35:24.538Z,14.80
2018-02-12T06:36:23.986Z,19.20
2018-02-12T06:37:24.328Z,10.10
2018-02-12T06:38:46.035Z,20.60
2018-02-12T06:39:46.718Z,10.70
2018-02-12T06:40:46.708Z,11.30
2018-02-12T06:41:46.522Z,13.50
2018-02-12T06:42:46.088Z,11.50
2018-02-12T06:43:46.613Z,16.90
2018-02-12T06:44:46.031Z,13.00
2018-02-12T06:45:46.655Z,14.20
2018-02-12T06:46:46.056Z,14.30
2018-02-12T06:47:46.574Z,14.30
2018-02-12T06:48:45.924Z,16.30
2018-02-12T06:49:46.964Z,10.60
2018-02-12T06:50:46.324Z,12.30
2018-02-12T06:51:46.574Z,7.60
2018-02-12T06:52:47.141Z,11.20
2018-02-12T06:53:46.539Z,10.20
2018-02-12T06:54:47.152Z,7.60
2018-02-12T06:56:24.514Z,9.90
2018-02-12T06:56:46.856Z,9.20
2018-02-12T06:57:47.736Z,14.70
2018-02-12T06:58:46.015Z,16.30
2018-02-12T06:59:47.496Z,14.60
2018-02-12T07:00:47.191Z,11.70
2018-02-12T07:01:47.909Z,15.70
2018-02-12T07:02:46.641Z,9.90
2018-02-12T07:03:47.933Z,13.10
2018-02-12T07:04:48.850Z,11.40
2018-02-12T07:05:47.166Z,9.30
2018-02-12T07:07:11.155Z,12.10
2018-02-12T07:08:11.394Z,9.30
2018-02-12T07:09:10.752Z,9.00
2018-02-12T07:10:10.599Z,8.10
2018-02-12T07:11:10.984Z,9.10
2018-02-12T07:12:10.708Z,9.90
2018-02-12T07:13:10.581Z,9.70
2018-02-12T07:14:10.330Z,13.60
2018-02-12T07:15:09.641Z,12.00
2018-02-12T07:16:10.477Z,11.20
2018-02-12T07:17:10.212Z,12.50
2018-02-12T07:18:09.719Z,10.10
2018-02-12T07:19:10.453Z,16.30
2018-02-12T07:20:10.337Z,10.10
2018-02-12T07:21:10.298Z,10.80
2018-02-12T07:22:09.805Z,11.40
2018-02-12T07:23:10.614Z,12.50
2018-02-12T07:24:10.232Z,15.00
2018-02-12T07:25:10.068Z,8.90
2018-02-12T07:26:11.412Z,11.10
2018-02-12T07:27:10.256Z,13.70
2018-02-12T07:28:10.162Z,13.30
2018-02-12T07:29:09.720Z,10.80
2018-02-12T07:30:31.979Z,12.20
2018-02-12T07:31:32.707Z,11.70
2018-02-12T07:32:32.162Z,12.60
2018-02-12T07:33:32.931Z,11.30
2018-02-12T07:34:54.237Z,11.70
2018-02-12T07:35:55.020Z,8.30
2018-02-12T07:36:54.679Z,7.60
2018-02-12T07:37:54.326Z,10.10
2018-02-12T07:38:54.690Z,9.90
2018-02-12T07:40:36.167Z,10.40
2018-02-12T07:41:36.535Z,12.10
2018-02-12T07:42:37.308Z,15.60
2018-02-12T07:43:36.815Z,12.80
2018-02-12T07:44:36.347Z,16.80
2018-02-12T07:45:37.118Z,12.10
2018-02-12T07:46:36.562Z,10.60
2018-02-12T07:47:36.935Z,15.60
2018-02-12T07:48:36.479Z,13.40
2018-02-12T07:49:36.992Z,14.90
2018-02-12T07:50:36.845Z,12.40
2018-02-12T07:51:36.271Z,11.10
2018-02-12T07:52:37.153Z,11.60
2018-02-12T07:53:36.512Z,8.80
2018-02-12T07:54:37.353Z,11.70
2018-02-12T07:55:37.126Z,8.00
2018-02-12T07:56:58.570Z,8.80
2018-02-12T07:57:59.353Z,9.60
2018-02-12T07:58:59.090Z,9.90
2018-02-12T07:59:58.845Z,9.90
2018-02-12T08:00:58.437Z,10.00
2018-02-12T08:01:58.773Z,9.00
2018-02-12T08:02:58.624Z,10.60
2018-02-12T08:04:20.207Z,6.90
2018-02-12T08:05:20.881Z,6.30
2018-02-12T08:06:21.461Z,7.00
2018-02-12T08:07:21.234Z,6.60
2018-02-12T08:08:21.157Z,7.80
2018-02-12T08:09:21.125Z,8.00
2018-02-12T08:10:20.714Z,7.90
2018-02-12T08:11:21.675Z,5.00
2018-02-12T08:12:21.519Z,7.80
2018-02-12T08:13:21.378Z,10.20
2018-02-12T08:14:21.196Z,10.10
2018-02-12T08:15:20.570Z,16.90
2018-02-12T08:16:21.522Z,7.70
2018-02-12T08:17:22.076Z,8.50
2018-02-12T08:18:20.551Z,9.10
2018-02-12T08:19:20.913Z,6.30
2018-02-12T08:20:20.603Z,6.60
2018-02-12T08:21:21.281Z,6.10
2018-02-12T08:22:21.020Z,4.30
2018-02-12T08:23:20.649Z,6.30
2018-02-12T08:24:21.595Z,5.90
2018-02-12T08:25:21.235Z,4.00
2018-02-12T08:26:20.559Z,9.40
2018-02-12T08:27:21.392Z,5.20
2018-02-12T08:28:21.285Z,6.80
2018-02-12T08:29:20.762Z,7.20
2018-02-12T08:30:21.410Z,4.80
2018-02-12T08:31:20.885Z,6.80
2018-02-12T08:32:20.631Z,4.10
2018-02-12T08:33:20.948Z,6.40
2018-02-12T08:34:20.700Z,3.40
2018-02-12T08:35:42.797Z,5.90
2018-02-12T08:36:43.641Z,3.70
2018-02-12T08:37:43.715Z,4.50
2018-02-12T08:38:43.505Z,4.00
2018-02-12T08:39:43.543Z,3.30
2018-02-12T08:40:43.024Z,2.90
2018-02-12T08:41:42.798Z,7.80
2018-02-12T08:43:05.075Z,6.90
2018-02-12T08:44:05.485Z,16.50
2018-02-12T08:45:05.251Z,5.10
2018-02-12T08:46:26.549Z,4.80
2018-02-12T08:47:27.035Z,4.60
2018-02-12T08:48:26.778Z,4.10
2018-02-12T08:49:26.353Z,4.60
2018-02-12T08:50:27.214Z,5.00
2018-02-12T08:51:27.382Z,4.20
2018-02-12T08:52:48.829Z,5.50
2018-02-12T08:53:49.598Z,7.00
2018-02-12T08:54:49.080Z,6.50
2018-02-12T08:55:49.002Z,5.10
2018-02-12T08:56:48.749Z,4.90
2018-02-12T08:57:49.317Z,5.60
2018-02-12T08:58:49.258Z,6.20
2018-02-12T08:59:49.153Z,5.30
2018-02-12T09:00:49.034Z,7.60
2018-02-12T09:01:49.286Z,7.10
2018-02-12T09:02:48.854Z,7.80
2018-02-12T09:03:49.784Z,6.70
2018-02-12T09:04:49.078Z,6.00
2018-02-12T09:05:48.853Z,6.80
2018-02-12T09:06:50.152Z,5.40
2018-02-12T09:07:48.885Z,6.70
2018-02-12T09:08:48.524Z,5.40
2018-02-12T09:09:49.414Z,9.00
2018-02-12T09:10:49.331Z,6.60
2018-02-12T09:11:49.118Z,10.40
2018-02-12T09:13:09.930Z,6.30
2018-02-12T09:14:10.649Z,7.80
2018-02-12T09:15:32.655Z,7.10
2018-02-12T09:16:33.327Z,11.60
2018-02-12T09:17:32.780Z,6.50
2018-02-12T09:18:32.481Z,10.60
2018-02-12T09:19:33.073Z,5.90
2018-02-12T09:20:32.846Z,8.90
2018-02-12T09:21:32.461Z,9.60
2018-02-12T09:22:33.086Z,6.50
2018-02-12T09:23:32.712Z,8.40
2018-02-12T09:24:33.112Z,9.90
2018-02-12T09:25:32.587Z,9.60
2018-02-12T09:26:33.644Z,8.10
2018-02-12T09:27:33.056Z,6.60
2018-02-12T09:28:33.147Z,5.90
2018-02-12T09:29:54.308Z,9.40
2018-02-12T09:31:16.893Z,11.80
2018-02-12T09:32:17.673Z,10.20
2018-02-12T09:33:17.561Z,7.10
2018-02-12T09:34:17.548Z,5.90
2018-02-12T09:35:17.339Z,11.60
2018-02-12T09:36:16.843Z,8.10
2018-02-12T09:37:39.330Z,7.20
2018-02-12T09:38:40.083Z,13.40
2018-02-12T09:39:40.077Z,11.60
2018-02-12T09:40:39.732Z,10.80
2018-02-12T09:41:39.662Z,13.50
2018-02-12T09:42:39.299Z,7.40
2018-02-12T09:43:39.926Z,7.30
2018-02-12T09:44:39.629Z,8.90
2018-02-12T09:45:39.543Z,9.60
2018-02-12T09:46:39.100Z,8.10
2018-02-12T09:47:40.024Z,7.80
2018-02-12T09:48:39.961Z,7.90
2018-02-12T09:49:39.501Z,10.80
2018-02-12T09:50:39.938Z,7.10
2018-02-12T09:51:39.737Z,6.20
2018-02-12T09:52:39.461Z,7.10
2018-02-12T09:54:00.526Z,9.90
2018-02-12T09:55:01.054Z,25.00
2018-02-12T09:56:22.244Z,6.30
2018-02-12T09:57:22.755Z,8.90
2018-02-12T09:58:22.576Z,8.00
2018-02-12T09:59:22.299Z,5.30
2018-02-12T10:00:23.244Z,3.80
2018-02-12T10:01:44.241Z,4.70
2018-02-12T10:02:45.317Z,7.10
2018-02-12T10:03:44.934Z,8.10
2018-02-12T10:04:44.463Z,6.90
2018-02-12T10:05:45.221Z,14.20
2018-02-12T10:06:45.156Z,9.10
2018-02-12T10:08:06.082Z,6.90
2018-02-12T10:09:06.699Z,10.20
2018-02-12T10:10:27.839Z,5.90
2018-02-12T10:11:28.348Z,8.20
2018-02-12T10:12:27.980Z,4.90
2018-02-12T10:13:28.877Z,3.90
2018-02-12T10:14:28.310Z,6.90
2018-02-12T10:15:29.330Z,8.00
2018-02-12T10:16:28.850Z,8.10
2018-02-12T10:18:11.857Z,6.20
2018-02-12T10:19:11.633Z,14.00
2018-02-12T10:20:33.930Z,8.00
2018-02-12T10:21:34.565Z,5.60
2018-02-12T10:22:34.498Z,6.40
2018-02-12T10:23:34.688Z,11.80
2018-02-12T10:24:34.368Z,9.20
2018-02-12T10:25:55.657Z,5.70
2018-02-12T10:26:56.549Z,7.50
2018-02-12T10:27:56.154Z,7.30
2018-02-12T10:28:56.891Z,4.10
2018-02-12T10:29:57.090Z,9.50
2018-02-12T10:30:56.577Z,4.00
2018-02-12T10:31:56.353Z,5.80
2018-02-12T10:32:55.748Z,8.70
2018-02-12T10:33:56.951Z,6.00
2018-02-12T10:34:57.725Z,4.80
2018-02-12T10:35:56.443Z,10.00
2018-02-12T10:36:55.941Z,7.80
2018-02-12T10:37:56.525Z,8.20
2018-02-12T10:38:55.958Z,7.80
2018-02-12T10:39:56.748Z,7.60
2018-02-12T10:40:56.255Z,8.40
2018-02-12T10:41:56.117Z,3.50
2018-02-12T10:42:56.866Z,6.70
2018-02-12T10:43:56.445Z,5.60
2018-02-12T10:44:56.224Z,5.90
2018-02-12T10:45:55.955Z,6.00
2018-02-12T10:46:56.933Z,5.70
2018-02-12T10:47:56.973Z,5.50
2018-02-12T10:48:57.228Z,10.40
2018-02-12T10:49:56.433Z,6.20
2018-02-12T10:50:56.800Z,6.30
2018-02-12T10:51:57.199Z,7.60
2018-02-12T10:52:56.135Z,8.80
2018-02-12T10:53:56.277Z,12.60
2018-02-12T10:54:55.917Z,6.10
2018-02-12T10:55:56.926Z,7.30
2018-02-12T10:56:56.594Z,9.70
2018-02-12T10:57:56.159Z,7.40
2018-02-12T10:58:56.744Z,7.20
2018-02-12T10:59:56.586Z,7.00
2018-02-12T11:01:17.261Z,5.30
2018-02-12T11:02:18.650Z,7.50
2018-02-12T11:03:18.864Z,6.10
2018-02-12T11:04:18.354Z,11.70
2018-02-12T11:05:18.419Z,11.00
2018-02-12T11:06:18.466Z,6.70
2018-02-12T11:07:18.130Z,7.30
2018-02-12T11:08:17.948Z,9.10
2018-02-12T11:09:17.597Z,7.10
2018-02-12T11:10:18.049Z,9.90
2018-02-12T11:11:17.615Z,10.80
2018-02-12T11:12:39.280Z,10.70
2018-02-12T11:13:40.105Z,13.70
2018-02-12T11:14:39.527Z,12.20
2018-02-12T11:15:40.176Z,9.50
2018-02-12T11:16:39.761Z,5.00
2018-02-12T11:17:39.237Z,8.80
2018-02-12T11:18:40.389Z,21.40
2018-02-12T11:19:40.202Z,8.30
2018-02-12T11:20:39.873Z,13.00
2018-02-12T11:21:39.812Z,7.20
2018-02-12T11:22:39.759Z,6.70
2018-02-12T11:23:40.381Z,10.70
2018-02-12T11:24:40.077Z,14.20
2018-02-12T11:25:40.087Z,9.50
2018-02-12T11:26:45.889Z,12.70
2018-02-12T11:27:39.924Z,17.60
2018-02-12T11:28:39.905Z,9.80
2018-02-12T11:29:45.093Z,10.90
2018-02-12T11:30:39.723Z,7.50
2018-02-12T11:31:40.001Z,8.50
2018-02-12T11:32:44.331Z,13.20
2018-02-12T11:33:40.322Z,14.10
2018-02-12T11:34:39.650Z,10.60
2018-02-12T11:35:39.145Z,7.60
2018-02-12T11:36:39.612Z,8.90
2018-02-12T11:37:40.260Z,11.00
2018-02-12T11:38:40.132Z,8.30
2018-02-12T11:39:40.050Z,8.50
2018-02-12T11:40:40.023Z,5.10
2018-02-12T11:41:40.064Z,11.60
2018-02-12T11:42:39.993Z,9.50
2018-02-12T11:43:39.645Z,8.50
2018-02-12T11:44:39.311Z,10.30
2018-02-12T11:45:39.696Z,11.70
2018-02-12T11:46:44.908Z,17.00
2018-02-12T11:47:40.015Z,8.00
2018-02-12T11:48:39.923Z,11.80
2018-02-12T11:49:39.690Z,11.00
2018-02-12T11:50:40.392Z,8.50
2018-02-12T11:51:41.382Z,9.60
2018-02-12T11:52:39.973Z,7.50
2018-02-12T11:53:39.486Z,7.80
2018-02-12T11:54:40.363Z,11.10
2018-02-12T11:55:41.238Z,12.20
2018-02-12T11:56:40.457Z,11.10
2018-02-12T11:57:40.365Z,12.50
2018-02-12T11:58:40.107Z,10.10
2018-02-12T11:59:40.208Z,8.60
2018-02-12T12:00:40.117Z,8.90
2018-02-12T12:01:40.176Z,9.70
2018-02-12T12:02:39.959Z,8.90
2018-02-12T12:03:39.763Z,9.00
2018-02-12T12:05:23.267Z,7.80
2018-02-12T12:06:24.093Z,12.50
2018-02-12T12:07:23.866Z,11.30
2018-02-12T12:08:23.662Z,8.00
2018-02-12T12:09:24.124Z,10.80
2018-02-12T12:10:24.083Z,9.20
2018-02-12T12:11:23.554Z,10.30
2018-02-12T12:12:24.437Z,8.10
2018-02-12T12:13:24.249Z,11.30
2018-02-12T12:14:23.761Z,5.60
2018-02-12T12:15:23.726Z,10.60
2018-02-12T12:16:24.114Z,11.50
2018-02-12T12:17:24.116Z,12.90
2018-02-12T12:18:24.025Z,10.70
2018-02-12T12:19:24.096Z,12.30
2018-02-12T12:20:23.850Z,11.00
2018-02-12T12:21:23.237Z,6.60
2018-02-12T12:22:24.106Z,6.90
2018-02-12T12:24:06.773Z,10.40
2018-02-12T12:25:06.314Z,6.20
2018-02-12T12:26:06.880Z,12.00
2018-02-12T12:27:06.701Z,11.30
2018-02-12T12:28:06.528Z,8.60
2018-02-12T12:29:07.665Z,11.30
2018-02-12T12:30:07.280Z,6.50
2018-02-12T12:31:07.010Z,9.20
2018-02-12T12:32:06.455Z,8.60
2018-02-12T12:33:07.214Z,8.50
2018-02-12T12:34:28.359Z,8.20
2018-02-12T12:35:28.969Z,14.70
2018-02-12T12:36:28.722Z,9.50
2018-02-12T12:37:29.290Z,8.90
2018-02-12T12:38:28.941Z,9.10
2018-02-12T12:39:28.844Z,10.40
2018-02-12T12:40:29.117Z,16.10
2018-02-12T12:41:28.587Z,7.30
2018-02-12T12:42:49.848Z,6.40
2018-02-12T12:43:51.414Z,10.10
2018-02-12T12:44:50.132Z,7.90
2018-02-12T12:45:50.126Z,10.10
2018-02-12T12:46:50.210Z,10.00
2018-02-12T12:47:50.154Z,10.30
2018-02-12T12:48:49.992Z,7.10
2018-02-12T12:49:50.994Z,7.30
2018-02-12T12:50:50.820Z,9.00
2018-02-12T12:51:50.238Z,6.40
2018-02-12T12:52:49.565Z,8.00
2018-02-12T12:53:50.830Z,9.00
2018-02-12T12:54:50.594Z,7.80
2018-02-12T12:55:49.959Z,7.70
2018-02-12T12:56:50.185Z,8.50
2018-02-12T12:57:49.462Z,10.10
2018-02-12T12:58:50.375Z,8.90
2018-02-12T12:59:50.139Z,11.80
2018-02-12T13:00:49.693Z,11.10
2018-02-12T13:01:50.160Z,11.10
2018-02-12T13:02:49.630Z,15.90
2018-02-12T13:03:50.402Z,9.50
2018-02-12T13:04:49.498Z,11.40
2018-02-12T13:05:50.223Z,7.00
2018-02-12T13:06:49.993Z,8.50
2018-02-12T13:07:49.894Z,8.10
2018-02-12T13:08:49.368Z,9.70
2018-02-12T13:09:50.158Z,10.20
2018-02-12T13:10:50.222Z,8.10
2018-02-12T13:11:49.969Z,10.10
2018-02-12T13:12:49.302Z,8.30
2018-02-12T13:13:49.652Z,10.20
2018-02-12T13:14:50.035Z,7.10
2018-02-12T13:16:05.406Z,8.20
2018-02-12T13:17:05.664Z,6.90
2018-02-12T13:18:09.447Z,10.00
2018-02-12T13:19:21.672Z,12.00
2018-02-12T13:20:22.516Z,15.20
2018-02-12T13:21:22.396Z,13.10
2018-02-12T13:22:22.264Z,11.10